createdAt,value
2023-05-03T00:07:30.160Z,12.24
2023-05-03T00:18:25.854Z,12.23
2023-05-03T00:29:17.474Z,12.09
2023-05-03T00:40:16.607Z,12.13
2023-05-03T00:51:08.857Z,12.12
2023-05-03T01:02:03.667Z,12.11
2023-05-03T01:13:03.043Z,12.08
2023-05-03T01:23:40.658Z,11.90
2023-05-03T01:34:36.963Z,11.83
2023-05-03T01:45:34.722Z,11.79
2023-05-03T01:56:13.773Z,11.59
2023-05-03T02:06:55.877Z,11.53
2023-05-03T02:17:56.602Z,11.65
2023-05-03T02:28:50.516Z,11.67
2023-05-03T02:39:46.017Z,11.71
2023-05-03T02:50:42.556Z,11.67
2023-05-03T03:01:39.631Z,11.65
2023-05-03T03:12:36.341Z,11.47
2023-05-03T03:23:35.330Z,11.38
2023-05-03T03:34:30.328Z,11.42
2023-05-03T03:45:28.954Z,11.46
2023-05-03T03:56:26.316Z,11.53
2023-05-03T04:07:45.434Z,11.41
2023-05-03T04:18:39.566Z,11.60
2023-05-03T04:29:20.449Z,11.72
2023-05-03T04:40:14.499Z,11.78
2023-05-03T04:51:12.191Z,12.00
2023-05-03T05:02:00.614Z,12.44
2023-05-03T05:12:39.154Z,12.51
2023-05-03T05:23:32.932Z,12.78
2023-05-03T05:34:26.184Z,13.09
2023-05-03T05:45:03.243Z,13.40
2023-05-03T05:55:58.666Z,13.62
2023-05-03T06:06:54.826Z,13.95
2023-05-03T06:17:49.087Z,14.24
2023-05-03T06:28:28.558Z,14.83
2023-05-03T06:39:22.723Z,15.26
2023-05-03T06:50:13.083Z,15.42
2023-05-03T07:01:01.207Z,15.55
2023-05-03T07:11:52.840Z,15.97
2023-05-03T07:22:43.243Z,15.97
2023-05-03T07:33:37.545Z,16.34
2023-05-03T07:44:35.102Z,16.56
2023-05-03T07:55:29.476Z,16.89
2023-05-03T08:06:20.958Z,16.71
2023-05-03T08:17:11.964Z,16.99
2023-05-03T08:27:57.709Z,17.44
2023-05-03T08:38:50.212Z,17.05
2023-05-03T08:49:46.453Z,17.38
2023-05-03T09:00:41.408Z,17.51
2023-05-03T09:11:34.304Z,17.35
2023-05-03T09:22:25.085Z,17.73
2023-05-03T09:33:12.841Z,17.85
2023-05-03T09:44:08.873Z,18.34
2023-05-03T09:55:04.502Z,18.21
2023-05-03T10:05:58.782Z,17.74
2023-05-03T10:16:31.149Z,17.73
2023-05-03T10:27:21.445Z,18.39
2023-05-03T10:37:59.193Z,17.94
2023-05-03T10:48:44.418Z,18.28
2023-05-03T10:59:43.023Z,18.50
2023-05-03T11:10:32.853Z,18.31
2023-05-03T11:21:23.544Z,18.04
2023-05-03T11:32:17.956Z,17.58
2023-05-03T11:43:10.828Z,17.82
2023-05-03T11:54:12.912Z,17.66
2023-05-03T12:05:01.495Z,17.02
2023-05-03T12:16:10.069Z,16.81
2023-05-03T12:26:58.147Z,16.74
2023-05-03T12:37:33.422Z,16.45
2023-05-03T12:48:29.139Z,16.47
2023-05-03T12:59:40.361Z,16.44
2023-05-03T13:10:26.459Z,16.38
2023-05-03T13:21:25.727Z,16.08
2023-05-03T13:32:24.513Z,16.07
2023-05-03T13:43:24.277Z,16.18
2023-05-03T13:54:11.528Z,16.35
2023-05-03T14:05:05.822Z,16.42
2023-05-03T14:15:38.517Z,16.07
2023-05-03T14:26:33.992Z,15.85
2023-05-03T14:37:22.013Z,15.75
2023-05-03T14:47:55.424Z,15.66
2023-05-03T14:58:49.262Z,15.82
2023-05-03T15:09:40.343Z,16.03
2023-05-03T15:20:27.625Z,15.96
2023-05-03T15:31:21.026Z,15.76
2023-05-03T15:42:21.041Z,15.60
2023-05-03T15:53:21.517Z,15.53
2023-05-03T16:04:11.604Z,15.64
2023-05-03T16:14:59.821Z,15.88
2023-05-03T16:25:40.866Z,15.91
2023-05-03T16:36:20.905Z,15.85
2023-05-03T16:47:06.827Z,15.76
2023-05-03T16:57:52.455Z,15.53
2023-05-03T17:08:48.818Z,15.43
2023-05-03T17:19:45.352Z,15.42
2023-05-03T17:30:40.957Z,15.41
2023-05-03T17:41:42.046Z,15.23
2023-05-03T17:52:40.013Z,14.84
2023-05-03T18:03:35.368Z,14.53
2023-05-03T18:14:30.999Z,14.68
2023-05-03T18:25:21.930Z,14.14
2023-05-03T18:36:20.113Z,13.94
2023-05-03T18:47:17.083Z,13.84
2023-05-03T18:58:11.148Z,13.71
2023-05-03T19:09:05.707Z,13.61
2023-05-03T19:19:59.382Z,13.44
2023-05-03T19:30:57.078Z,13.43
2023-05-03T19:41:53.950Z,13.21
2023-05-03T19:52:49.863Z,13.17
2023-05-03T20:03:46.539Z,13.28
2023-05-03T20:24:56.335Z,12.96
2023-05-03T20:35:47.106Z,12.91
2023-05-03T20:46:22.792Z,12.81
2023-05-03T20:57:03.114Z,12.78
2023-05-03T21:07:57.080Z,12.61
2023-05-03T21:18:46.769Z,12.64
2023-05-03T21:29:35.582Z,12.60
2023-05-03T21:40:32.470Z,12.45
2023-05-03T21:51:24.571Z,12.42
2023-05-03T22:02:01.107Z,12.27
2023-05-03T22:12:48.596Z,12.33
2023-05-03T22:23:37.894Z,12.27
2023-05-03T22:34:34.707Z,12.18
2023-05-03T22:45:22.559Z,12.08
2023-05-03T22:56:00.196Z,12.09
2023-05-03T23:06:53.060Z,12.00
2023-05-03T23:17:46.449Z,11.87
2023-05-03T23:28:35.222Z,11.79
2023-05-03T23:39:25.757Z,11.67
2023-05-03T23:50:19.192Z,11.47
